DFOO/BOY METAR and TAF weather

Enter ICAO airport designator
Station Type Date Time Source
DFOO METAR 2020/07/11 17:00 UTC NOAA

DFOO 111700Z 22006KT 9999 FEW020 28/23 Q1012


Station Type Date Time Source
DFOO Decoded METAR 2020/07/11 17:00 UTC NOAA

Bobo-Dioulasso, Burkina Faso (DFOO) 11-10N 004-19W 460M
Jul 11, 2020 - 01:00 PM EDT / 2020.07.11 1700 UTC
Wind: from the SW (220 degrees) at 7 MPH (6 KT):0
Visibility: greater than 7 mile(s):0
Sky conditions: mostly clear
Temperature: 82 F (28 C)
Dew Point: 73 F (23 C)
Relative Humidity: 74%
Pressure (altimeter): 29.88 in. Hg (1012 hPa)
ob: DFOO 111700Z 22006KT 9999 FEW020 28/23 Q1012
cycle: 17

Station Type Date Time Source
DFOO TAF 2020/07/11 18:21 UTC NOAA

TAF DFOO 111700Z 1118/1218 20008KT 9999 SCT016
TEMPO 1118/1124 4000 TSRA SCT016 FEW030CB
TEMPO 1212/1218 4000 TSRA SCT016 FEW030CB

Example: see airport list